Providence, Rhode Island
Traffic Map
Current Weather Conditions
Providence, Rhode Island
Broken Clouds
Broken Clouds
28°
Feels Like: 29°
Wind Chill: 28° Ceiling: 25000
Heat Index: 29° Visibility: 10mi
Dew Point: 18° Wind: 9mph
Humidity: 56% Direction: 270° (W)
Pressure: 29.85in Gusts: 0mph
Raw Report DataKPVD 291751Z 27008KT 10SM FEW045 BKN250 BKN300 28/18 A2985 RMK AO2 SLP109 T02780183 10283 20161 56039 $
Traffic Incident Summary
Active as of:
Severity:
Category:
InformationThere was an issue retrieving the traffic information for this location. Please try a different location or try again shortly.
Advertisements
Track Severe Weather on mobile